Latest Weather Observations for Redland (Alexandra Hills)

IDQ60801

Issued at 2:12 pm EST Sunday 17 February 2019 (issued every 10 minutes, with the page automatically refreshed every 10 minutes)

About weather observations | Map of weather stations | Latest weather observations for QLD | Other Formats
Station Details ID: 140007 Name: REDLAND (ALEXANDRA HILLS) Lat: -27.54 Lon: 153.24 Height: 50.53 m
Data from the previous 72 hours. | See also: Recent months at Redland (Alexandra Hills)
Date/Time
EST
Temp
°C
App
Temp
°C
Dew
Point
°C
Rel
Hum
%
Delta-T
°C
Wind Press
QNH
hPa
Press
MSL
hPa
Rain since
9am
mm
Dir  Spd
km/h
Gust
km/h
Spd
kts
Gust
kts
17/02:00pm 28.2 27.0 15.1 44 8.0 E 15 26 8 14 - - 0.0
17/01:30pm 29.0 29.0 16.2 46 8.0 SE 11 24 6 13 - - 0.0
17/01:00pm 28.7 28.7 16.3 47 7.7 ESE 11 26 6 14 - - 0.0
17/12:30pm 28.8 27.8 15.7 45 8.1 SE 15 24 8 13 - - 0.0
17/12:00pm 28.0 27.3 16.3 49 7.3 SE 15 26 8 14 - - 0.0
17/11:30am 27.9 26.7 16.2 49 7.2 ESE 17 28 9 15 - - 0.0
17/11:00am 27.4 27.0 15.1 47 7.5 SE 11 19 6 10 - - 0.0
17/10:30am 28.1 27.0 14.3 42 8.3 SE 13 24 7 13 - - 0.0
17/10:00am 27.8 26.3 14.1 43 8.2 SE 15 30 8 16 - - 0.0
17/09:30am 27.2 27.2 16.2 51 6.8 SE 11 22 6 12 - - 0.0
17/09:00am 26.3 25.2 15.4 51 6.6 SE 15 26 8 14 - - 0.2
17/08:30am 25.5 25.6 16.4 57 5.6 SSE 11 20 6 11 - - 0.2
17/08:00am 24.7 25.1 16.2 59 5.2 S 9 19 5 10 - - 0.2
17/07:30am 23.4 24.0 16.7 66 4.1 S 9 17 5 9 - - 0.2
17/07:00am 21.6 22.5 16.6 73 3.0 SW 7 13 4 7 - - 0.2
17/06:30am 19.7 20.4 16.2 80 2.1 SW 7 11 4 6 - - 0.2
17/06:00am 18.6 19.2 15.8 84 1.7 SW 7 11 4 6 - - 0.2
17/05:30am 18.7 19.0 16.1 85 1.6 SW 9 13 5 7 - - 0.2
17/05:00am 18.6 19.5 16.0 85 1.5 SW 6 9 3 5 - - 0.2
17/04:30am 19.1 19.9 16.3 84 1.7 SW 7 9 4 5 - - 0.2
17/04:00am 19.3 20.1 16.3 83 1.8 SW 7 9 4 5 - - 0.2
17/03:30am 19.7 20.8 16.5 82 1.9 SW 6 7 3 4 - - 0.2
17/03:00am 20.6 21.6 16.8 79 2.3 SSW 7 13 4 7 - - 0.2
17/02:30am 20.2 20.6 16.4 79 2.3 SSW 9 13 5 7 - - 0.2
17/02:00am 20.4 21.2 16.4 78 2.4 SSW 7 9 4 5 - - 0.2
17/01:30am 20.9 21.4 16.5 76 2.7 SSW 9 11 5 6 - - 0.2
17/01:00am 21.0 21.6 16.8 77 2.6 SSW 9 13 5 7 - - 0.2
17/12:30am 20.9 21.5 16.7 77 2.6 SSW 9 13 5 7 - - 0.2
17/12:00am 21.3 21.9 16.9 76 2.7 S 9 13 5 7 - - 0.2
 
Date/Time
EST
Temp
°C
App
Temp
°C
Dew
Point
°C
Rel
Hum
%
Delta-T
°C
Wind Press
QNH
hPa
Press
MSL
hPa
Rain since
9am
mm
Dir  Spd
km/h
Gust
km/h
Spd
kts
Gust
kts
16/11:30pm 21.3 22.4 17.1 77 2.6 S 7 9 4 5 - - 0.2
16/11:00pm 21.7 22.8 17.1 75 2.8 SSE 7 13 4 7 - - 0.2
16/10:30pm 22.6 23.5 17.5 73 3.2 SSE 9 13 5 7 - - 0.2
16/10:00pm 22.8 24.2 17.7 73 3.2 SE 7 13 4 7 - - 0.2
16/09:30pm 23.1 24.2 18.0 73 3.2 SE 9 20 5 11 - - 0.2
16/09:00pm 23.4 24.2 18.1 72 3.3 SSE 11 20 6 11 - - 0.2
16/08:30pm 22.8 24.0 19.0 79 2.4 SE 11 17 6 9 - - 0.2
16/08:00pm 22.9 25.0 19.3 80 2.3 SSE 7 22 4 12 - - 0.2
16/07:30pm 22.5 24.8 19.9 85 1.7 SE 7 15 4 8 - - 0.2
16/07:00pm 21.7 23.2 19.8 89 1.2 S 11 20 6 11 - - 0.2
16/06:30pm 22.7 22.4 19.1 80 2.3 SE 19 30 10 16 - - 0.0
16/06:00pm 24.5 24.0 17.7 66 4.3 SSE 17 24 9 13 - - 0.0
16/05:30pm 24.9 24.2 17.4 63 4.7 SSE 17 35 9 19 - - 0.0
16/05:00pm 24.9 24.1 17.9 65 4.4 SE 19 33 10 18 - - 0.0
16/04:30pm 25.6 25.1 17.8 62 4.9 SE 17 33 9 18 - - 0.0
16/04:00pm 25.8 24.9 17.7 61 5.1 SE 19 32 10 17 - - 0.0
16/03:30pm 25.5 25.2 18.2 64 4.6 SE 17 37 9 20 - - 0.0
16/03:00pm 26.4 26.0 18.8 63 4.9 SE 19 30 10 16 - - 0.0
16/02:30pm 26.4 25.8 17.5 58 5.6 ESE 17 28 9 15 - - 0.0
16/02:00pm 27.4 26.3 17.8 55 6.1 SE 20 35 11 19 - - 0.0
16/01:30pm 26.7 25.9 17.2 56 5.9 SE 17 35 9 19 - - 0.0
16/01:00pm 26.5 25.2 17.3 57 5.8 SE 20 33 11 18 - - 0.0
16/12:30pm 27.3 26.8 16.9 53 6.5 SE 15 28 8 15 - - 0.0
16/12:00pm 27.9 26.9 15.5 46 7.6 SE 15 28 8 15 - - 0.0
16/11:30am 28.3 26.5 14.5 43 8.3 SE 17 33 9 18 - - 0.0
16/11:00am 27.7 26.0 14.7 45 7.9 ESE 17 28 9 15 - - 0.0
16/10:30am 28.0 25.9 15.3 46 7.8 SE 20 39 11 21 - - 0.0
16/10:00am 27.3 26.2 17.2 54 6.3 SE 19 33 10 18 - - 0.0
16/09:30am 25.7 24.5 16.0 55 5.9 SE 17 32 9 17 - - 0.0
16/09:00am 25.8 24.6 16.1 55 5.9 SSE 17 33 9 18 - - 0.0
16/08:30am 25.8 25.1 16.4 56 5.8 SE 15 30 8 16 - - 0.0
16/08:00am 24.5 24.4 17.0 63 4.6 SSE 13 20 7 11 - - 0.0
16/07:30am 23.1 23.4 17.1 69 3.7 S 11 22 6 12 - - 0.0
16/07:00am 23.0 22.5 17.0 69 3.7 S 15 24 8 13 - - 0.0
16/06:30am 22.0 22.3 16.9 73 3.1 S 11 20 6 11 - - 0.0
16/06:00am 21.1 21.1 16.3 74 2.9 S 11 19 6 10 - - 0.0
16/05:30am 21.1 20.6 15.9 72 3.1 S 13 20 7 11 - - 0.0
16/05:00am 21.2 21.0 15.7 71 3.3 S 11 19 6 10 - - 0.0
16/04:30am 21.1 20.4 15.4 70 3.4 S 13 19 7 10 - - 0.0
16/04:00am 21.4 20.7 15.5 69 3.5 S 13 17 7 9 - - 0.0
16/03:30am 21.7 21.5 15.8 69 3.5 S 11 20 6 11 - - 0.0
16/03:00am 21.8 21.8 16.3 71 3.3 S 11 20 6 11 - - 0.0
16/02:30am 22.1 22.0 17.0 73 3.1 S 13 22 7 12 - - 0.0
16/02:00am 22.1 21.7 17.2 74 3.0 S 15 24 8 13 - - 0.0
16/01:30am 22.4 22.0 16.2 68 3.8 S 13 24 7 13 - - 0.0
16/01:00am 22.6 22.7 16.6 69 3.7 S 11 19 6 10 - - 0.0
16/12:30am 22.8 23.3 16.6 68 3.8 S 9 17 5 9 - - 0.0
16/12:00am 22.7 23.1 16.3 67 3.9 S 9 20 5 11 - - 0.0
 
Date/Time
EST
Temp
°C
App
Temp
°C
Dew
Point
°C
Rel
Hum
%
Delta-T
°C
Wind Press
QNH
hPa
Press
MSL
hPa
Rain since
9am
mm
Dir  Spd
km/h
Gust
km/h
Spd
kts
Gust
kts
15/11:30pm 22.5 22.5 16.3 68 3.8 S 11 17 6 9 - - 0.0
15/11:00pm 22.9 23.1 16.7 68 3.8 S 11 20 6 11 - - 0.0
15/10:30pm 23.0 23.2 16.8 68 3.8 S 11 19 6 10 - - 0.0
15/10:00pm 23.0 23.1 16.5 67 4.0 S 11 17 6 9 - - 0.0
15/09:30pm 23.3 23.7 16.4 65 4.2 SSE 9 20 5 11 - - 0.0
15/09:00pm 23.1 23.0 15.9 64 4.4 S 11 22 6 12 - - 0.0
15/08:30pm 23.3 22.3 15.6 62 4.6 SSE 15 24 8 13 - - 0.0
15/08:00pm 23.8 22.4 15.6 60 5.0 SSE 17 30 9 16 - - 0.0
15/07:30pm 24.0 22.8 16.0 61 4.9 SSE 17 35 9 19 - - 0.0
15/07:00pm 24.3 22.2 16.3 61 4.9 SSE 22 37 12 20 - - 0.0
15/06:30pm 24.6 22.8 16.1 59 5.2 SSE 20 37 11 20 - - 0.0
15/06:00pm 25.0 22.6 16.4 59 5.3 SE 24 46 13 25 - - 0.0
15/05:54pm 25.1 22.0 16.5 59 5.3 SE 28 46 15 25 - - 0.0
15/05:30pm 25.5 22.9 16.9 59 5.3 SE 26 48 14 26 - - 0.0
15/05:08pm 25.8 22.7 16.6 56 5.7 SE 28 52 15 28 - - 0.0
15/05:00pm 26.3 24.4 16.8 56 5.9 SE 22 46 12 25 - - 0.0
15/04:30pm 26.3 23.6 17.6 58 5.5 SE 28 50 15 27 - - 0.0
15/04:00pm 26.3 22.9 17.6 58 5.5 SE 32 54 17 29 - - 0.0
15/03:45pm 26.6 24.0 17.7 58 5.6 SE 28 48 15 26 - - 0.0
15/03:30pm 26.7 24.6 17.2 56 5.9 SE 24 44 13 24 - - 0.0
15/03:00pm 26.9 24.0 17.9 57 5.7 SE 30 54 16 29 - - 0.0
15/02:32pm 27.0 24.6 18.3 59 5.5 SE 28 50 15 27 - - 0.0
15/02:30pm 27.2 25.2 18.2 58 5.7 SE 26 50 14 27 - - 0.0
15/02:00pm 27.4 25.7 18.1 57 5.9 SE 24 44 13 24 - - 0.0
15/01:53pm 27.3 24.9 18.3 58 5.7 SE 28 52 15 28 - - 0.0
15/01:30pm 28.0 26.2 17.8 54 6.5 SE 24 43 13 23 - - 0.0
15/01:00pm 27.5 25.1 17.4 54 6.4 SE 26 46 14 25 - - 0.0
15/12:41pm 27.8 25.1 17.6 53 6.4 SE 28 48 15 26 - - 0.0
15/12:30pm 28.5 27.0 18.6 55 6.4 SE 24 46 13 25 - - 0.0
15/12:06pm 27.4 24.7 17.6 55 6.2 SE 28 48 15 26 - - 0.0
15/12:00pm 27.7 25.7 17.5 53 6.4 SE 24 44 13 24 - - 0.0
15/11:30am 27.5 26.4 17.7 55 6.2 SSE 20 37 11 20 - - 0.0
15/11:00am 27.6 26.1 17.7 54 6.3 SE 22 37 12 20 - - 0.0
15/10:30am 27.3 27.1 18.6 59 5.6 SE 17 37 9 20 - - 0.0
15/10:00am 26.7 25.1 17.5 57 5.8 SE 22 41 12 22 - - 0.0
15/09:30am 26.3 24.4 15.7 52 6.5 SSE 20 35 11 19 - - 0.0
15/09:00am 26.2 24.7 16.2 54 6.2 SSE 19 32 10 17 - - 0.0
15/08:30am 26.1 24.8 16.9 57 5.7 SSE 19 33 10 18 - - 0.0
15/08:00am 24.9 23.6 16.9 61 5.0 S 19 30 10 16 - - 0.0
15/07:30am 24.2 23.0 17.0 64 4.5 S 19 30 10 16 - - 0.0
15/07:00am 23.5 23.2 17.3 68 3.8 S 15 24 8 13 - - 0.0
15/06:30am 23.2 23.1 17.0 68 3.8 S 13 24 7 13 - - 0.0
15/06:00am 23.0 23.0 17.2 70 3.6 S 13 24 7 13 - - 0.0
15/05:30am 22.9 23.2 17.1 70 3.6 S 11 22 6 12 - - 0.0
15/05:00am 22.8 23.1 17.0 70 3.6 S 11 20 6 11 - - 0.0
15/04:30am 23.0 23.0 17.2 70 3.6 S 13 30 7 16 - - 0.0
15/04:00am 23.0 23.5 17.5 71 3.4 S 11 22 6 12 - - 0.0
15/03:30am 23.0 22.8 17.5 71 3.4 S 15 22 8 12 - - 0.0
15/03:00am 23.3 23.4 17.5 70 3.6 SSE 13 24 7 13 - - 0.0
15/02:30am 23.5 23.3 17.5 69 3.7 SSE 15 26 8 14 - - 0.0
15/02:00am 23.7 23.2 17.7 69 3.7 SSE 17 30 9 16 - - 0.0
15/01:30am 23.7 23.5 17.7 69 3.7 SSE 15 32 8 17 - - 0.0
15/01:00am 23.9 23.8 17.9 69 3.8 SSE 15 32 8 17 - - 0.0
15/12:30am 23.9 23.8 17.9 69 3.8 SSE 15 28 8 15 - - 0.0
15/12:00am 23.9 23.4 17.9 69 3.8 SSE 17 30 9 16 - - 0.0
 
Date/Time
EST
Temp
°C
App
Temp
°C
Dew
Point
°C
Rel
Hum
%
Delta-T
°C
Wind Press
QNH
hPa
Press
MSL
hPa
Rain since
9am
mm
Dir  Spd
km/h
Gust
km/h
Spd
kts
Gust
kts
14/11:30pm 23.9 23.3 17.6 68 3.9 SSE 17 30 9 16 - - 0.0
14/11:00pm 23.8 23.2 17.5 68 3.9 SSE 17 24 9 13 - - 0.0
14/10:30pm 23.7 23.0 17.4 68 3.9 SSE 17 28 9 15 - - 0.0
14/10:00pm 23.9 23.3 17.6 68 3.9 SSE 17 33 9 18 - - 0.0
14/09:30pm 24.0 22.8 17.5 67 4.0 SSE 20 43 11 23 - - 0.0
14/09:00pm 24.2 22.5 17.2 65 4.3 SSE 22 41 12 22 - - 0.0
14/08:30pm 24.4 22.7 17.1 63 4.5 SSE 22 43 12 23 - - 0.0
14/08:00pm 24.4 22.9 17.6 66 4.2 SSE 22 39 12 21 - - 0.0
14/07:30pm 24.0 23.0 18.0 69 3.8 SSE 20 39 11 21 - - 0.0
14/07:00pm 23.7 22.9 18.4 72 3.3 SSE 20 37 11 20 - - 0.0
14/06:30pm 24.0 22.0 18.4 71 3.5 SSE 26 52 14 28 - - 0.0
14/06:00pm 24.7 23.6 18.6 69 3.9 SSE 22 41 12 22 - - 0.0
14/05:30pm 25.3 24.0 19.0 68 4.0 SSE 24 39 13 21 - - 0.0
14/05:12pm 25.2 23.1 18.9 68 4.0 SSE 28 52 15 28 - - 0.0
14/05:00pm 25.6 24.8 19.3 68 4.1 SSE 22 41 12 22 - - 0.0
14/04:30pm 26.1 24.3 19.5 67 4.3 SSE 28 54 15 29 - - 0.0
14/04:27pm 26.1 24.1 19.2 65 4.4 SSE 28 54 15 29 - - 0.0
14/04:00pm 26.4 24.8 19.3 65 4.6 SSE 26 52 14 28 - - 0.0
14/03:30pm 26.8 26.3 19.9 66 4.5 SSE 22 44 12 24 - - 0.0
14/03:00pm 27.0 26.3 20.3 66 4.4 SSE 24 46 13 25 - - 0.0
14/02:30pm 27.1 27.2 21.2 70 3.9 SE 22 35 12 19 - - 0.0

Other Formats:

Comma delimited format used in spreadsheet applications
http://www.bom.gov.au/fwo/IDQ60801/IDQ60801.94561.axf

JavaScript Object Notation format (JSON) in row-major order
http://www.bom.gov.au/fwo/IDQ60801/IDQ60801.94561.json